Time;durP1;ratioP1;P1;durP2;ratioP2;P2;SDS_P1;SDS_P2;PMS_P1;PMS_P2;Temp;Humidity;BMP_temperature;BMP_pressure;BME280_temperature;BME280_humidity;BME280_pressure;Samples;Min_cycle;Max_cycle;Signal;HPM_P1;HPM_P2
2022/10/19 00:01:07;;;;;;;12.40;8.05;;;;;;;21.71;100.00;97259.19;4967994;28;20466;-45
2022/10/19 00:03:36;;;;;;;14.15;8.77;;;;;;;22.01;100.00;97253.59;4968805;28;20337;-45
2022/10/19 00:06:16;;;;;;;14.07;8.55;;;;;;;22.20;100.00;97249.41;4967375;28;20085;-51
2022/10/19 00:08:45;;;;;;;12.07;8.48;;;;;;;22.31;100.00;97251.50;4963173;28;20074;-45
2022/10/19 00:11:14;;;;;;;15.07;8.68;;;;;;;22.38;100.00;97248.84;4967117;28;20105;-46
2022/10/19 00:13:42;;;;;;;15.95;7.97;;;;;;;22.11;100.00;97259.44;4965852;28;20404;-45
2022/10/19 00:16:11;;;;;;;12.88;8.20;;;;;;;22.39;100.00;97247.81;4968461;28;20090;-46
2022/10/19 00:18:42;;;;;;;14.70;8.13;;;;;;;22.49;100.00;97245.59;4968227;28;20463;-44
2022/10/19 00:21:11;;;;;;;;;;;;;;;22.62;100.00;97252.88;4968450;28;20081;-46
2022/10/19 00:23:40;;;;;;;9.45;7.60;;;;;;;22.56;100.00;97245.63;4955754;28;19949;-44
2022/10/19 00:26:08;;;;;;;11.57;6.90;;;;;;;22.56;100.00;97251.00;4963617;28;20089;-47
2022/10/19 00:28:37;;;;;;;10.00;7.47;;;;;;;22.58;100.00;97246.25;4965306;28;20083;-46
2022/10/19 00:31:06;;;;;;;11.70;7.53;;;;;;;22.15;100.00;97246.47;4965411;28;20116;-49
2022/10/19 00:33:34;;;;;;;14.23;7.93;;;;;;;22.40;100.00;97247.63;4967576;28;20090;-49
2022/10/19 00:36:03;;;;;;;11.68;8.13;;;;;;;22.49;100.00;97253.66;4967457;28;20070;-43
2022/10/19 00:38:32;;;;;;;12.88;8.57;;;;;;;22.57;100.00;97252.66;4965279;28;20086;-52
2022/10/19 00:41:02;;;;;;;14.18;7.55;;;;;;;22.30;100.00;97254.38;4965961;28;20087;-51
2022/10/19 00:43:31;;;;;;;;;;;;;;;22.58;100.00;97246.25;4967656;28;20749;-48
2022/10/19 00:45:59;;;;;;;15.50;7.40;;;;;;;22.15;100.00;97255.34;4966344;28;19957;-52
2022/10/19 00:48:30;;;;;;;14.52;8.23;;;;;;;22.15;100.00;97257.22;4966933;28;20050;-44
2022/10/19 00:50:59;;;;;;;13.13;7.70;;;;;;;22.06;100.00;97253.84;4964863;28;20485;-51
2022/10/19 00:53:29;;;;;;;11.50;7.28;;;;;;;22.06;100.00;97256.53;4967035;28;20105;-45
2022/10/19 00:55:57;;;;;;;10.30;7.03;;;;;;;22.09;100.00;97242.66;4967081;28;20083;-51
2022/10/19 00:58:27;;;;;;;13.63;7.50;;;;;;;22.14;100.00;97245.59;4967204;28;20098;-48
2022/10/19 01:00:55;;;;;;;11.60;8.50;;;;;;;22.14;100.00;97244.78;4966780;28;20082;-53
2022/10/19 01:03:24;;;;;;;12.50;7.75;;;;;;;22.12;100.00;97242.28;4966396;28;20093;-49
2022/10/19 01:05:52;;;;;;;15.40;8.77;;;;;;;22.14;100.00;97239.41;4964299;28;20086;-47
2022/10/19 01:08:21;;;;;;;14.45;8.85;;;;;;;22.01;100.00;97242.84;4964378;28;20090;-47
2022/10/19 01:10:53;;;;;;;12.30;8.52;;;;;;;22.08;100.00;97238.34;4967879;28;20548;-47
2022/10/19 01:13:32;;;;;;;15.27;8.13;;;;;;;22.07;100.00;97233.16;4965389;28;20082;-48
2022/10/19 01:16:04;;;;;;;9.85;8.18;;;;;;;21.60;100.00;97235.53;4965757;28;20086;-51
2022/10/19 01:18:39;;;;;;;12.50;7.95;;;;;;;21.38;100.00;97234.75;4967040;28;20070;-45
2022/10/19 01:21:19;;;;;;;18.00;7.57;;;;;;;21.60;100.00;97232.84;4965015;28;20090;-49
2022/10/19 01:24:18;;;;;;;10.25;7.28;;;;;;;21.63;100.00;97237.84;4964624;28;20506;-47
2022/10/19 01:27:02;;;;;;;14.35;7.55;;;;;;;21.69;100.00;97238.91;4969938;28;20082;-51
2022/10/19 01:29:50;;;;;;;14.57;7.75;;;;;;;20.85;100.00;97244.94;4969728;28;20560;-46
2022/10/19 01:32:23;;;;;;;14.05;7.30;;;;;;;20.62;100.00;97245.13;4969442;28;20097;-49
2022/10/19 01:34:55;;;;;;;11.00;8.60;;;;;;;21.16;100.00;97241.94;4967804;28;20086;-50
2022/10/19 01:37:28;;;;;;;12.43;8.45;;;;;;;20.78;100.00;97242.19;4969248;28;20081;-49
2022/10/19 01:40:01;;;;;;;11.43;7.78;;;;;;;20.25;100.00;97240.72;4970046;28;20082;-46
2022/10/19 01:42:32;;;;;;;14.60;8.70;;;;;;;20.61;100.00;97240.75;4969509;28;20089;-51
2022/10/19 01:45:05;;;;;;;15.52;8.88;;;;;;;20.28;100.00;97233.13;4969918;28;20470;-48
2022/10/19 01:47:35;;;;;;;12.95;8.73;;;;;;;20.45;100.00;97225.72;4970185;28;20067;-47
2022/10/19 01:50:08;;;;;;;14.27;8.85;;;;;;;20.97;100.00;97224.66;4967053;28;20086;-49
2022/10/19 01:52:37;;;;;;;12.88;8.70;;;;;;;21.21;100.00;97225.28;4967851;28;20089;-47
2022/10/19 01:55:06;;;;;;;11.57;8.35;;;;;;;21.29;100.00;97225.97;4970269;28;20190;-47
2022/10/19 01:57:37;;;;;;;13.93;8.40;;;;;;;21.31;100.00;97228.47;4968954;28;20074;-51
2022/10/19 02:00:10;;;;;;;12.80;7.57;;;;;;;21.32;100.00;97222.09;4969656;28;20111;-45
2022/10/19 02:02:43;;;;;;;12.07;7.85;;;;;;;21.52;100.00;97219.59;4969786;28;20078;-50
2022/10/19 02:05:12;;;;;;;12.98;7.70;;;;;;;21.09;100.00;97227.66;4968473;28;20097;-49
2022/10/19 02:07:41;;;;;;;11.63;7.72;;;;;;;21.31;100.00;97223.13;4966632;28;20081;-48
2022/10/19 02:10:10;;;;;;;10.93;7.72;;;;;;;21.55;100.00;97214.66;4967161;28;20078;-50
2022/10/19 02:12:39;;;;;;;10.82;7.43;;;;;;;21.46;100.00;97229.25;4967821;28;20070;-45
2022/10/19 02:15:10;;;;;;;13.30;8.30;;;;;;;21.48;100.00;97224.53;4965049;28;20125;-47
2022/10/19 02:17:44;;;;;;;9.70;8.13;;;;;;;21.41;100.00;97225.50;4967399;28;20702;-46
2022/10/19 02:20:13;;;;;;;10.45;7.95;;;;;;;21.03;100.00;97225.75;4968420;28;20089;-45
2022/10/19 02:22:42;;;;;;;11.88;8.88;;;;;;;21.10;100.00;97224.78;4968262;28;20511;-48
2022/10/19 02:25:11;;;;;;;14.93;8.50;;;;;;;21.16;100.00;97223.16;4965778;28;20772;-47
2022/10/19 02:27:40;;;;;;;15.68;9.10;;;;;;;21.42;100.00;97224.47;4966960;28;20086;-48
2022/10/19 02:30:11;;;;;;;15.27;9.00;;;;;;;21.61;100.00;97220.25;4965613;28;20086;-48
2022/10/19 02:32:40;;;;;;;12.73;9.05;;;;;;;21.73;100.00;97221.38;4968327;28;20090;-46
2022/10/19 02:35:09;;;;;;;11.30;8.35;;;;;;;21.63;100.00;97219.03;4967065;28;20580;-47
2022/10/19 02:37:38;;;;;;;13.45;8.70;;;;;;;21.08;100.00;97220.63;4966559;28;20075;-49
2022/10/19 02:40:07;;;;;;;11.00;8.32;;;;;;;21.43;100.00;97218.06;4965428;28;20078;-45
2022/10/19 02:42:39;;;;;;;12.20;8.80;;;;;;;21.75;100.00;97212.13;4965584;28;20086;-45
2022/10/19 02:45:12;;;;;;;13.32;8.35;;;;;;;21.28;100.00;97210.91;4966280;28;20082;-45
2022/10/19 02:47:43;;;;;;;12.95;7.78;;;;;;;21.48;100.00;97211.09;4967316;28;20086;-47
2022/10/19 02:50:12;;;;;;;11.75;8.35;;;;;;;21.60;100.00;97199.81;4968743;28;20086;-53
2022/10/19 02:52:41;;;;;;;9.45;7.47;;;;;;;21.73;100.00;97200.72;4968129;28;20086;-49
2022/10/19 02:55:09;;;;;;;10.70;7.72;;;;;;;21.91;100.00;97199.38;4965896;28;20086;-46
2022/10/19 02:57:37;;;;;;;12.02;7.68;;;;;;;21.99;100.00;97197.38;4967274;28;20082;-48
2022/10/19 03:00:08;;;;;;;10.77;7.65;;;;;;;22.11;100.00;97194.97;4964033;28;20094;-47
2022/10/19 03:02:37;;;;;;;14.10;8.18;;;;;;;22.09;100.00;97193.50;4963819;28;20082;-51
2022/10/19 03:05:06;;;;;;;9.45;7.90;;;;;;;21.23;100.00;97196.41;4966377;28;20078;-51
2022/10/19 03:07:35;;;;;;;14.38;8.27;;;;;;;21.87;100.00;97192.75;4965313;28;20086;-47
2022/10/19 03:10:04;;;;;;;12.00;8.52;;;;;;;21.72;100.00;97198.25;4964902;28;20093;-49
2022/10/19 03:12:32;;;;;;;12.38;8.93;;;;;;;21.74;100.00;97194.34;4963187;28;20097;-48
2022/10/19 03:15:00;;;;;;;15.48;9.27;;;;;;;21.88;100.00;97189.03;4966194;28;20085;-48
2022/10/19 03:17:28;;;;;;;11.52;9.38;;;;;;;21.80;100.00;97187.34;4964442;28;20085;-47
2022/10/19 03:19:58;;;;;;;13.65;9.55;;;;;;;22.05;100.00;97177.75;4965881;28;20085;-48
2022/10/19 03:22:26;;;;;;;14.50;9.70;;;;;;;21.45;100.00;97183.81;4963511;28;20097;-48
2022/10/19 03:24:55;;;;;;;14.40;9.18;;;;;;;21.75;100.00;97184.44;4966668;28;20473;-51
2022/10/19 03:27:23;;;;;;;13.38;9.50;;;;;;;21.84;100.00;97182.41;4963338;28;20093;-50
2022/10/19 03:29:51;;;;;;;14.77;9.88;;;;;;;21.87;100.00;97177.47;4966480;28;20482;-48
2022/10/19 03:32:19;;;;;;;17.23;9.70;;;;;;;21.87;100.00;97176.66;4962634;28;20506;-46
2022/10/19 03:34:48;;;;;;;15.43;9.80;;;;;;;21.92;100.00;97179.56;4965894;28;20081;-51
2022/10/19 03:37:17;;;;;;;12.65;9.30;;;;;;;21.69;100.00;97169.13;4964340;28;20625;-45
2022/10/19 03:39:46;;;;;;;12.47;9.17;;;;;;;22.02;100.00;97169.28;4965228;28;20487;-48
2022/10/19 03:42:14;;;;;;;16.38;9.20;;;;;;;21.81;100.00;97176.41;4960872;28;20082;-46
2022/10/19 03:44:42;;;;;;;13.32;9.48;;;;;;;21.92;100.00;97166.13;4965382;28;20086;-48
2022/10/19 03:47:10;;;;;;;14.75;9.23;;;;;;;21.82;100.00;97174.56;4967446;28;20090;-49
2022/10/19 03:49:38;;;;;;;13.55;9.77;;;;;;;21.77;100.00;97166.25;4967150;28;20074;-46
2022/10/19 03:52:08;;;;;;;14.30;9.38;;;;;;;22.07;100.00;97160.66;4967626;28;20078;-53
2022/10/19 03:54:38;;;;;;;16.33;9.33;;;;;;;22.16;100.00;97162.13;4967443;28;20089;-50
2022/10/19 03:57:06;;;;;;;12.85;8.65;;;;;;;21.88;100.00;97165.69;4968057;28;20090;-47
2022/10/19 03:59:35;;;;;;;15.02;9.65;;;;;;;21.89;100.00;97162.00;4968258;28;20078;-46
2022/10/19 04:02:03;;;;;;;14.77;10.50;;;;;;;21.89;100.00;97169.25;4965586;28;20077;-47
2022/10/19 04:04:32;;;;;;;14.93;10.77;;;;;;;21.73;100.00;97165.00;4965367;28;20101;-48
2022/10/19 04:07:00;;;;;;;13.10;10.68;;;;;;;21.71;100.00;97170.59;4967445;28;20082;-45
2022/10/19 04:09:28;;;;;;;15.82;11.73;;;;;;;21.21;100.00;97169.78;4964700;28;20106;-45
2022/10/19 04:11:58;;;;;;;14.27;9.88;;;;;;;21.03;100.00;97167.56;4968354;28;20213;-47
2022/10/19 04:14:26;;;;;;;15.20;10.75;;;;;;;21.31;100.00;97154.19;4967119;28;20049;-46
2022/10/19 04:17:06;;;;;;;15.87;11.03;;;;;;;21.75;100.00;97158.41;4965424;28;20086;-44
2022/10/19 04:19:34;;;;;;;16.25;11.00;;;;;;;21.50;100.00;97158.03;4966475;28;20086;-48
2022/10/19 04:22:03;;;;;;;18.48;10.52;;;;;;;21.69;100.00;97163.75;4968324;28;20090;-45
2022/10/19 04:24:31;;;;;;;15.02;10.77;;;;;;;21.60;100.00;97171.13;4966137;28;20082;-47
2022/10/19 04:27:01;;;;;;;13.23;10.07;;;;;;;21.72;100.00;97172.25;4968418;28;20082;-47
2022/10/19 04:29:29;;;;;;;13.45;9.40;;;;;;;21.63;100.00;97167.22;4967706;28;20090;-49
2022/10/19 04:31:58;;;;;;;16.27;9.73;;;;;;;21.75;100.00;97171.84;4968051;28;20066;-45
2022/10/19 04:34:26;;;;;;;12.65;10.27;;;;;;;21.72;100.00;97163.38;4966716;28;20183;-48
2022/10/19 04:36:58;;;;;;;19.15;9.43;;;;;;;21.55;100.00;97163.66;4968029;28;20082;-47
2022/10/19 04:39:26;;;;;;;13.25;9.00;;;;;;;21.56;100.00;97161.81;4965522;28;20651;-46
2022/10/19 04:41:55;;;;;;;13.10;8.82;;;;;;;21.30;100.00;97162.41;4963573;28;20076;-46
2022/10/19 04:44:24;;;;;;;14.25;9.80;;;;;;;21.60;100.00;97157.69;4967238;28;20082;-48
2022/10/19 04:46:53;;;;;;;14.27;9.80;;;;;;;21.57;100.00;97160.78;4965045;28;20093;-51
2022/10/19 04:49:21;;;;;;;12.30;9.52;;;;;;;21.55;100.00;97155.63;4967251;28;20066;-50
2022/10/19 04:51:49;;;;;;;14.73;9.60;;;;;;;21.18;100.00;97150.56;4963053;28;20078;-50
2022/10/19 04:54:17;;;;;;;14.20;9.90;;;;;;;21.23;100.00;97153.47;4965907;28;20090;-47
2022/10/19 04:56:46;;;;;;;13.93;9.52;;;;;;;21.63;100.00;97151.13;4968938;28;20278;-46
2022/10/19 04:59:14;;;;;;;15.18;9.63;;;;;;;21.71;100.00;97159.00;4968018;28;20086;-49
2022/10/19 05:01:43;;;;;;;12.77;9.43;;;;;;;21.82;100.00;97150.41;4970784;28;20070;-47
2022/10/19 05:04:14;;;;;;;14.60;9.35;;;;;;;21.71;100.00;97151.78;4969468;28;20736;-47
2022/10/19 05:06:42;;;;;;;13.52;9.77;;;;;;;21.81;100.00;97140.66;4966542;28;20086;-51
2022/10/19 05:09:11;;;;;;;16.40;10.15;;;;;;;21.78;100.00;97141.06;4971043;28;20587;-53
2022/10/19 05:11:39;;;;;;;12.07;9.27;;;;;;;21.72;100.00;97144.56;4970802;28;20090;-48
2022/10/19 05:14:07;;;;;;;15.20;10.73;;;;;;;21.29;100.00;97145.47;4969885;28;20082;-49
2022/10/19 05:16:35;;;;;;;13.68;9.82;;;;;;;21.54;100.00;97139.69;4970086;28;20086;-48
2022/10/19 05:19:05;;;;;;;13.10;8.98;;;;;;;21.66;100.00;97137.28;4968476;28;20533;-50
2022/10/19 05:21:33;;;;;;;18.23;10.23;;;;;;;21.65;100.00;97143.69;4970029;28;20086;-48
2022/10/19 05:24:02;;;;;;;13.57;9.65;;;;;;;21.62;100.00;97130.69;4970620;28;20093;-48
2022/10/19 05:26:30;;;;;;;15.85;9.45;;;;;;;21.72;100.00;97141.88;4970348;28;20098;-50
2022/10/19 05:29:01;;;;;;;15.80;10.00;;;;;;;21.80;100.00;97145.22;4971001;28;20089;-47
2022/10/19 05:31:31;;;;;;;15.45;9.85;;;;;;;21.78;100.00;97141.06;4968742;28;20083;-48
2022/10/19 05:33:59;;;;;;;13.73;9.48;;;;;;;21.78;100.00;97151.81;4968538;28;20090;-47
2022/10/19 05:36:33;;;;;;;12.57;10.27;;;;;;;21.65;100.00;97143.69;4970060;28;20072;-46
2022/10/19 05:39:04;;;;;;;13.10;10.15;;;;;;;21.55;100.00;97146.72;4970451;28;20093;-49
2022/10/19 05:41:32;;;;;;;13.15;9.63;;;;;;;21.60;100.00;97144.28;4968035;28;20150;-48
2022/10/19 05:44:02;;;;;;;18.23;10.63;;;;;;;21.79;100.00;97148.13;4969870;28;20074;-44
2022/10/19 05:46:32;;;;;;;14.00;9.82;;;;;;;21.80;100.00;97144.41;4969125;28;20542;-44
2022/10/19 05:49:00;;;;;;;14.88;10.10;;;;;;;21.58;100.00;97151.72;4969266;28;20074;-51
2022/10/19 05:51:30;;;;;;;16.58;10.10;;;;;;;21.50;100.00;97152.69;4969739;28;20083;-47
2022/10/19 05:53:58;;;;;;;14.88;11.52;;;;;;;21.27;100.00;97147.56;4965989;28;20090;-45
2022/10/19 05:56:28;;;;;;;15.40;11.25;;;;;;;21.33;100.00;97149.47;4969419;28;20065;-45
2022/10/19 05:58:57;;;;;;;;;;;;;;;21.38;100.00;97153.44;4970996;28;20082;-49
2022/10/19 06:01:26;;;;;;;15.02;11.27;;;;;;;21.59;100.00;97157.91;4971569;28;19961;-44
2022/10/19 06:03:56;;;;;;;14.13;11.45;;;;;;;21.33;100.00;97159.34;4968156;28;20514;-48
2022/10/19 06:06:25;;;;;;;20.30;13.60;;;;;;;21.12;100.00;97168.25;4968872;28;20078;-43
2022/10/19 06:08:57;;;;;;;22.40;14.60;;;;;;;21.28;100.00;97169.84;4969713;28;20090;-47
2022/10/19 06:11:27;;;;;;;22.58;14.82;;;;;;;21.07;100.00;97171.53;4968099;28;20082;-46
2022/10/19 06:13:57;;;;;;;21.67;15.45;;;;;;;21.02;100.00;97173.94;4969682;28;20086;-47
2022/10/19 06:16:29;;;;;;;31.15;19.17;;;;;;;20.85;100.00;97170.72;4967882;28;20490;-49
2022/10/19 06:18:58;;;;;;;34.80;20.52;;;;;;;20.69;100.00;97172.81;4964387;28;20429;-43
2022/10/19 06:21:29;;;;;;;43.08;18.13;;;;;;;20.58;100.00;97174.16;4967387;28;20070;-44
2022/10/19 06:24:01;;;;;;;52.80;21.55;;;;;;;20.84;100.00;97181.63;4969691;28;20172;-48
2022/10/19 06:26:30;;;;;;;48.03;22.35;;;;;;;21.15;100.00;97185.81;4969463;28;20065;-44
2022/10/19 06:29:00;;;;;;;48.22;21.25;;;;;;;21.19;100.00;97185.22;4969886;28;20074;-42
2022/10/19 06:31:28;;;;;;;44.25;23.08;;;;;;;21.24;100.00;97185.50;4967941;28;20097;-44
2022/10/19 06:33:56;;;;;;;48.67;22.48;;;;;;;21.27;100.00;97177.06;4968841;28;20082;-50
2022/10/19 06:36:26;;;;;;;44.47;20.00;;;;;;;21.29;100.00;97177.69;4967022;28;20090;-48
2022/10/19 06:38:55;;;;;;;40.03;19.60;;;;;;;21.42;100.00;97185.03;4968674;28;20086;-49
2022/10/19 06:41:25;;;;;;;41.83;19.63;;;;;;;21.21;100.00;97199.28;4969289;28;20547;-49
2022/10/19 06:43:54;;;;;;;36.00;17.77;;;;;;;21.07;100.00;97187.63;4969665;28;20097;-49
2022/10/19 06:46:24;;;;;;;35.03;17.83;;;;;;;21.49;100.00;97188.59;4967548;28;20512;-48
2022/10/19 06:48:54;;;;;;;30.75;15.82;;;;;;;21.62;100.00;97187.88;4969191;28;20154;-46
2022/10/19 06:51:24;;;;;;;28.27;14.18;;;;;;;20.83;100.00;97196.88;4968482;28;20486;-47
2022/10/19 06:53:52;;;;;;;30.55;16.05;;;;;;;21.31;100.00;97202.47;4968331;28;20082;-44
2022/10/19 06:56:25;;;;;;;33.00;16.30;;;;;;;21.07;100.00;97198.34;4969152;28;20078;-50
2022/10/19 06:58:54;;;;;;;30.17;16.00;;;;;;;21.30;100.00;97208.88;4967459;28;20106;-50
2022/10/19 07:01:22;;;;;;;33.50;17.40;;;;;;;21.54;100.00;97202.28;4966396;28;20074;-47
2022/10/19 07:04:15;;;;;;;35.38;18.60;;;;;;;21.57;100.00;97201.03;4969343;28;20058;-45
2022/10/19 07:06:43;;;;;;;44.33;18.88;;;;;;;21.06;100.00;97204.75;4968389;28;20078;-43
2022/10/19 07:09:11;;;;;;;45.42;20.00;;;;;;;21.34;100.00;97206.66;4969044;28;20105;-51
2022/10/19 07:11:41;;;;;;;38.45;17.95;;;;;;;21.21;100.00;97204.66;4968147;28;20086;-44
2022/10/19 07:14:13;;;;;;;47.13;20.92;;;;;;;21.69;100.00;97204.03;4964782;28;20470;-43
2022/10/19 07:16:42;;;;;;;39.65;19.45;;;;;;;22.03;100.00;97205.88;4968876;28;20141;-45
2022/10/19 07:19:10;;;;;;;66.45;20.48;;;;;;;21.76;100.00;97205.72;4968278;28;20077;-49
2022/10/19 07:21:40;;;;;;;51.72;19.65;;;;;;;21.88;100.00;97202.47;4968343;28;20081;-43
2022/10/19 07:24:08;;;;;;;55.85;20.58;;;;;;;21.77;100.00;97202.00;4967405;28;20078;-51
2022/10/19 07:26:37;;;;;;;42.17;19.75;;;;;;;21.28;100.00;97199.34;4968641;28;20093;-43
2022/10/19 07:29:07;;;;;;;44.28;19.92;;;;;;;21.18;100.00;97205.03;4968277;28;20101;-48
2022/10/19 07:31:35;;;;;;;39.23;18.27;;;;;;;21.36;100.00;97209.97;4967874;28;20086;-48
2022/10/19 07:34:04;;;;;;;41.95;19.58;;;;;;;20.62;100.00;97205.75;4967375;28;20501;-49
2022/10/19 07:36:34;;;;;;;41.38;19.92;;;;;;;21.51;100.00;97193.78;4966748;28;20082;-43
2022/10/19 07:39:04;;;;;;;41.92;19.17;;;;;;;21.48;100.00;97196.84;4967418;28;20521;-50
2022/10/19 07:41:33;;;;;;;38.28;18.17;;;;;;;21.29;100.00;97206.38;4967344;28;20087;-48
2022/10/19 07:44:02;;;;;;;39.25;19.58;;;;;;;21.87;100.00;97192.75;4967890;28;20482;-43
2022/10/19 07:46:32;;;;;;;40.67;20.13;;;;;;;21.35;100.00;97194.06;4966275;28;20098;-49
2022/10/19 07:49:00;;;;;;;;;;;;;;;22.36;100.00;97192.59;4968584;28;20487;-46
2022/10/19 07:51:29;;;;;;;35.08;19.25;;;;;;;22.24;100.00;97195.06;4967284;28;20387;-49
2022/10/19 07:53:57;;;;;;;35.58;20.20;;;;;;;21.51;100.00;97199.97;4967089;28;20090;-46
2022/10/19 07:56:27;;;;;;;33.20;19.13;;;;;;;22.21;100.00;97194.63;4967704;28;20471;-45
2022/10/19 07:58:57;;;;;;;32.75;17.98;;;;;;;22.35;100.00;97196.34;4965741;28;20549;-44
2022/10/19 08:01:27;;;;;;;37.28;20.17;;;;;;;22.56;100.00;97197.22;4967852;28;20483;-44
2022/10/19 08:03:58;;;;;;;37.50;21.70;;;;;;;22.90;100.00;97190.91;4965822;28;20082;-43
2022/10/19 08:06:46;;;;;;;;;;;;;;;23.11;100.00;97190.75;4968391;28;20178;-44
2022/10/19 08:09:15;;;;;;;30.05;19.20;;;;;;;23.04;100.00;97197.16;4967736;28;19981;-47
2022/10/19 08:12:03;;;;;;;30.52;20.85;;;;;;;22.78;100.00;97195.22;4966129;28;20074;-44
2022/10/19 08:14:33;;;;;;;34.33;20.70;;;;;;;22.61;100.00;97203.66;4967270;28;20089;-46
2022/10/19 08:17:01;;;;;;;31.60;20.33;;;;;;;22.55;100.00;97206.34;4967680;28;20093;-44
2022/10/19 08:19:31;;;;;;;29.73;20.42;;;;;;;22.94;100.00;97203.75;4967599;28;20082;-41
2022/10/19 08:21:59;;;;;;;31.87;20.20;;;;;;;23.51;100.00;97206.06;4965642;28;20067;-44
2022/10/19 08:24:27;;;;;;;30.15;20.42;;;;;;;23.51;100.00;97211.47;4967625;28;20471;-46
2022/10/19 08:26:55;;;;;;;28.52;19.48;;;;;;;22.92;100.00;97213.91;4967642;28;20090;-48
2022/10/19 08:29:23;;;;;;;31.77;22.20;;;;;;;23.50;100.00;97217.84;4967040;28;20086;-50
2022/10/19 08:31:57;;;;;;;31.73;20.95;;;;;;;23.82;100.00;97211.66;4966632;28;20078;-43
2022/10/19 08:34:26;;;;;;;26.45;19.30;;;;;;;23.75;100.00;97204.63;4968979;28;20086;-45
2022/10/19 08:36:55;;;;;;;28.13;19.50;;;;;;;23.76;100.00;97206.28;4970763;28;20074;-45
2022/10/19 08:39:25;;;;;;;30.95;21.17;;;;;;;23.21;100.00;97211.88;4971801;28;20094;-45
2022/10/19 08:41:59;;;;;;;23.73;18.80;;;;;;;23.42;100.00;97210.81;4971350;28;20086;-43
2022/10/19 08:44:47;;;;;;;25.27;19.02;;;;;;;23.96;100.00;97195.47;4971846;28;20085;-44
2022/10/19 08:47:24;;;;;;;24.83;17.67;;;;;;;24.45;100.00;97200.28;4971718;28;20086;-47
2022/10/19 08:49:53;;;;;;;26.77;19.45;;;;;;;24.34;100.00;97200.94;4965767;28;20466;-43
2022/10/19 08:52:26;;;;;;;28.67;20.50;;;;;;;23.78;100.00;97199.66;4970982;28;20078;-44
2022/10/19 08:55:03;;;;;;;25.77;19.83;;;;;;;23.39;100.00;97201.28;4968659;28;20089;-44
2022/10/19 08:57:34;;;;;;;;;;;;;;;23.11;100.00;97204.19;4971722;28;20093;-46
2022/10/19 09:00:06;;;;;;;23.70;17.58;;;;;;;22.55;100.00;97201.78;4969195;28;20352;-47
2022/10/19 09:02:52;;;;;;;26.23;19.90;;;;;;;22.74;100.00;97206.38;4969595;28;20079;-48
2022/10/19 09:05:24;;;;;;;24.98;17.92;;;;;;;23.41;100.00;97201.09;4968922;28;20093;-52
2022/10/19 09:07:54;;;;;;;22.23;17.08;;;;;;;23.96;100.00;97198.16;4967468;28;20116;-53
2022/10/19 09:10:26;;;;;;;23.88;17.45;;;;;;;23.73;100.00;97199.44;4970723;28;20082;-46
2022/10/19 09:12:57;;;;;;;22.55;17.73;;;;;;;23.78;100.00;97199.66;4971025;28;20494;-52
2022/10/19 09:15:28;;;;;;;19.90;15.27;;;;;;;23.82;100.00;97192.81;4971415;28;20081;-44
2022/10/19 09:17:56;;;;;;;18.00;14.75;;;;;;;23.27;100.00;97199.47;4969975;28;20078;-47
2022/10/19 09:20:30;;;;;;;20.13;15.27;;;;;;;23.30;100.00;97199.88;4966746;28;20049;-47
2022/10/19 09:23:04;;;;;;;18.52;14.43;;;;;;;22.87;100.00;97194.81;4969927;28;20065;-48
2022/10/19 09:25:37;;;;;;;17.00;14.63;;;;;;;23.50;100.00;97209.78;4971548;28;20074;-50
2022/10/19 09:28:16;;;;;;;19.10;15.27;;;;;;;23.81;100.00;97199.22;4969552;28;20090;-48
2022/10/19 09:30:45;;;;;;;19.77;14.00;;;;;;;23.83;100.00;97201.72;4980671;28;20129;-47
2022/10/19 09:33:19;;;;;;;17.10;14.10;;;;;;;24.48;100.00;97201.72;4969532;28;20077;-49
2022/10/19 09:35:48;;;;;;;17.60;13.20;;;;;;;23.89;100.00;97198.19;4971279;28;20522;-50
2022/10/19 09:38:20;;;;;;;17.15;12.75;;;;;;;24.38;100.00;97197.59;4969563;28;20082;-45
2022/10/19 09:40:48;;;;;;;14.77;12.65;;;;;;;23.65;100.00;97197.75;4965325;28;20093;-50
2022/10/19 09:43:20;;;;;;;17.55;13.85;;;;;;;24.00;100.00;97200.22;4970794;28;20078;-47
2022/10/19 09:45:52;;;;;;;16.52;14.00;;;;;;;23.44;100.00;97206.91;4969084;28;20070;-48
2022/10/19 09:48:26;;;;;;;14.85;12.52;;;;;;;23.39;100.00;97208.53;4968105;28;20073;-45
2022/10/19 09:50:57;;;;;;;16.13;12.50;;;;;;;23.71;100.00;97214.16;4969156;28;20070;-44
2022/10/19 09:53:28;;;;;;;13.45;11.75;;;;;;;24.23;100.00;97207.00;4968107;28;20093;-44
2022/10/19 09:55:59;;;;;;;12.43;10.52;;;;;;;23.95;100.00;97207.25;4963992;28;20497;-47
2022/10/19 09:58:29;;;;;;;15.80;10.88;;;;;;;23.40;100.00;97220.97;4968580;28;20109;-47
2022/10/19 10:01:01;;;;;;;11.80;10.15;;;;;;;25.06;100.00;97210.53;4969644;28;20074;-46
2022/10/19 10:03:33;;;;;;;11.63;9.73;;;;;;;24.91;100.00;97206.47;4968766;28;20078;-49
2022/10/19 10:06:04;;;;;;;11.00;9.80;;;;;;;24.54;100.00;97208.97;4970989;28;20457;-42
2022/10/19 10:08:36;;;;;;;12.32;9.60;;;;;;;24.38;100.00;97208.38;4968852;28;20082;-43
2022/10/19 10:11:08;;;;;;;10.80;9.60;;;;;;;23.39;100.00;97206.69;4969884;28;20051;-45
2022/10/19 10:13:40;;;;;;;12.55;10.27;;;;;;;23.88;100.00;97202.75;4968908;28;20090;-46
2022/10/19 10:16:11;;;;;;;11.57;9.35;;;;;;;24.31;100.00;97202.19;4968598;28;20070;-46
2022/10/19 10:18:49;;;;;;;;;;;;;;;24.05;100.00;97204.97;4968551;28;20097;-45
2022/10/19 10:21:20;;;;;;;11.00;8.90;;;;;;;24.21;100.00;97191.03;4968282;28;19965;-43
2022/10/19 10:24:04;;;;;;;10.30;9.02;;;;;;;23.73;100.00;97204.00;4969223;28;20066;-43
2022/10/19 10:26:38;;;;;;;11.13;8.30;;;;;;;24.29;100.00;97203.44;4969871;28;20445;-51
2022/10/19 10:29:19;;;;;;;11.18;8.90;;;;;;;24.50;100.00;97202.31;4968799;28;20082;-44
2022/10/19 10:31:47;;;;;;;;;;;;;;;24.72;100.00;97198.28;4969356;28;20717;-49
2022/10/19 10:34:19;;;;;;;7.70;6.57;;;;;;;24.47;100.00;97197.38;4969319;28;19972;-47
2022/10/19 10:37:06;;;;;;;9.90;8.45;;;;;;;24.37;100.00;97195.94;4967457;28;20194;-45
2022/10/19 10:39:41;;;;;;;9.98;7.50;;;;;;;24.67;100.00;97194.56;4969495;28;20085;-48
2022/10/19 10:42:14;;;;;;;12.52;9.65;;;;;;;24.28;100.00;97189.13;4968336;28;20470;-48
2022/10/19 10:44:45;;;;;;;11.02;9.55;;;;;;;24.95;100.00;97183.38;4968044;28;20533;-46
2022/10/19 10:47:17;;;;;;;10.00;8.35;;;;;;;25.16;100.00;97187.66;4968535;28;20471;-46
2022/10/19 10:49:53;;;;;;;10.60;8.25;;;;;;;24.97;100.00;97178.63;4969158;28;20082;-44
2022/10/19 10:52:21;;;;;;;12.05;10.13;;;;;;;24.34;100.00;97177.50;4967756;28;20471;-46
2022/10/19 10:55:00;;;;;;;8.30;7.50;;;;;;;24.58;100.00;97167.88;4967737;28;20484;-44
2022/10/19 10:57:32;;;;;;;4.20;3.80;;;;;;;24.70;99.99;97168.00;4968000;28;20113;-45
2022/10/19 11:00:09;;;;;;;8.02;4.85;;;;;;;25.53;90.14;97162.41;4968529;28;20090;-45
2022/10/19 11:02:45;;;;;;;11.32;9.38;;;;;;;25.87;98.75;97165.63;4966469;28;20086;-48
2022/10/19 11:05:17;;;;;;;18.13;14.27;;;;;;;25.14;100.00;97166.28;4966877;28;20089;-46
2022/10/19 11:07:47;;;;;;;20.05;15.20;;;;;;;24.46;100.00;97164.19;4968395;28;20082;-45
2022/10/19 11:10:19;;;;;;;;;;;;;;;25.02;100.00;97166.13;4968688;28;20083;-45
2022/10/19 11:13:16;;;;;;;15.10;11.55;;;;;;;24.69;100.00;97166.34;4964196;28;19957;-50
2022/10/19 11:15:50;;;;;;;12.25;10.40;;;;;;;23.85;100.00;97159.22;4965542;28;20085;-44
2022/10/19 11:18:21;;;;;;;13.90;10.25;;;;;;;24.15;100.00;97154.97;4968208;28;20089;-48
2022/10/19 11:20:57;;;;;;;17.48;11.38;;;;;;;24.13;100.00;97156.22;4969044;28;20086;-46
2022/10/19 11:23:35;;;;;;;16.17;10.75;;;;;;;23.84;100.00;97157.56;4967824;28;20086;-53
2022/10/19 11:26:14;;;;;;;17.23;11.98;;;;;;;23.61;100.00;97144.56;4968578;28;20086;-50
2022/10/19 11:28:53;;;;;;;19.13;12.82;;;;;;;23.34;100.00;97147.28;4968744;28;20078;-45
2022/10/19 11:31:27;;;;;;;24.80;14.45;;;;;;;24.20;100.00;97148.94;4968101;28;20085;-47
2022/10/19 11:34:04;;;;;;;18.42;14.35;;;;;;;23.16;100.00;97153.28;4964912;28;20082;-46